Latest Coastal Weather Observations for Bairnsdale

IDV60701

Issued at 4:11 pm EST Sunday 15 September 2019 (issued every 10 minutes, with the page automatically refreshed every 10 minutes)

About coastal observations | Map of coastal stations | Coastal observations for VIC | Marine services | Other Formats
Station Details ID: 085279 Name: BAIRNSDALE AIRPORT Lat: -37.88 Lon: 147.57 Height: 49.4 m
Data from the previous 72 hours. | See also: Recent months at Bairnsdale
Date/Time
EST
Wind Sea
Height
m
Swell Vis
km
Cloud Weather Temp
°C
Press
hPa
Rain since
9am
mm
Dir  Spd
kts
Gust
kts
Height
m
Period
s
Dir
15/04:00pm NW 13 23 - - - - 10 Cloudy - 22.5 1012.7 0.0
15/03:30pm NNW 14 20 - - - - 10 Cloudy - 22.6 1012.5 0.0
15/03:00pm NNW 15 23 - - - - 10 Cloudy - 22.4 1012.7 0.0
15/02:30pm NNW 16 23 - - - - 10 Cloudy - 22.3 1013.0 0.0
15/02:00pm NNW 14 19 - - - - 10 Cloudy - 22.2 1013.4 0.0
15/01:30pm NNW 18 24 - - - - 10 Cloudy - 22.4 1013.5 0.0
15/01:00pm NNW 20 27 - - - - 10 Partly cloudy - 23.9 1013.7 0.0
15/12:31pm NNW 16 26 - - - - 10 - - 24.6 1014.2 0.0
15/12:30pm NNW 16 22 - - - - 10 - - 24.2 1014.2 0.0
15/12:00pm NNW 14 19 - - - - 10 - - 24.6 1014.8 0.0
15/11:30am NW 13 18 - - - - 10 Partly cloudy - 23.0 1015.4 0.0
15/11:00am NW 11 15 - - - - 10 Partly cloudy - 22.7 1016.0 0.0
15/10:30am NW 9 12 - - - - 10 Partly cloudy - 21.3 1016.5 0.0
15/10:00am NW 8 11 - - - - 10 Partly cloudy - 21.4 1017.0 0.0
15/09:30am NW 8 14 - - - - 10 Partly cloudy - 19.7 1017.4 0.0
15/09:00am NW 6 8 - - - - 10 Mostly clear - 16.3 1017.3 0.0
15/08:30am NNE 2 3 - - - - 10 Partly cloudy - 12.8 1017.5 0.0
15/08:00am NE 4 5 - - - - 10 Partly cloudy - 11.8 1017.5 0.0
15/07:30am NW 4 5 - - - - 10 Cloudy - 11.9 1017.9 0.0
15/07:00am NW 7 8 - - - - 10 Partly cloudy - 11.1 1018.0 0.0
15/06:30am NW 7 8 - - - - 10 Partly cloudy - 12.3 1018.5 0.0
15/06:00am NW 7 9 - - - - 10 Cloudy - 13.1 1018.3 0.0
15/05:30am WNW 7 9 - - - - 10 Partly cloudy - 12.7 1018.1 0.0
15/05:00am WNW 7 9 - - - - 10 Partly cloudy - 12.9 1017.8 0.0
15/04:30am NW 6 7 - - - - 10 Cloudy - 10.8 1017.6 0.0
15/04:00am NW 6 7 - - - - 10 Cloudy - 10.6 1017.8 0.0
15/03:30am NW 5 6 - - - - 10 Partly cloudy - 10.0 1018.2 0.0
15/03:00am NNW 7 8 - - - - 10 Mostly cloudy - 9.9 1018.6 0.0
15/02:30am NW 8 9 - - - - 10 Cloudy - 9.8 1019.4 0.0
15/02:00am NW 6 8 - - - - 10 Cloudy - 9.1 1019.7 0.0
15/01:30am W 4 5 - - - - 10 Partly cloudy - 9.5 1020.0 0.0
15/01:00am SSW 6 8 - - - - 10 Partly cloudy - 9.7 1020.0 0.0
15/12:30am SSW 8 9 - - - - 10 Cloudy - 9.0 1020.1 0.0
15/12:00am NNW 3 4 - - - - 9 Mostly cloudy - 7.3 1019.3 0.0
 
Date/Time
EST
Wind Sea
Height
m
Swell Vis
km
Cloud Weather Temp
°C
Press
hPa
Rain since
9am
mm
Dir  Spd
kts
Gust
kts
Height
m
Period
s
Dir
14/11:30pm NNW 5 5 - - - - 8 Partly cloudy - 6.5 1019.6 0.0
14/11:27pm NNW 5 5 - - - - 8 Partly cloudy - 6.2 1019.6 0.0
14/11:00pm N 5 6 - - - - 5 - - 6.7 1020.1 0.0
14/10:39pm N 4 5 - - - - 5 - - 5.8 1020.1 0.0
14/10:30pm N 3 4 - - - - 7 - - 7.1 1020.2 0.0
14/10:20pm N 4 4 - - - - 6 - - 6.5 1020.4 0.0
14/10:03pm NE 3 4 - - - - 5 - - 5.7 1020.7 0.0
14/10:00pm NE 3 4 - - - - 7 - - 5.5 1020.6 0.0
14/09:30pm NNE 3 4 - - - - 8 - - 6.6 1020.7 0.0
14/09:00pm N 3 4 - - - - 7 - - 7.1 1021.5 0.0
14/08:30pm NNE 5 5 - - - - 9 - - 8.5 1021.7 0.0
14/08:00pm NE 5 5 - - - - 9 - - 8.8 1022.0 0.0
14/07:30pm E 4 5 - - - - 10 - - 8.7 1022.3 0.0
14/07:00pm ENE 5 6 - - - - 10 - - 9.9 1022.3 0.0
14/06:30pm E 5 6 - - - - 10 - - 10.5 1022.2 0.0
14/06:00pm E 5 6 - - - - 10 - - 11.6 1022.1 0.0
14/05:30pm E 5 7 - - - - 10 - - 13.1 1022.1 0.0
14/05:00pm ESE 7 10 - - - - 10 - - 14.4 1022.2 0.0
14/04:30pm ESE 9 11 - - - - 10 - - 15.4 1022.2 0.0
14/04:00pm S 9 13 - - - - 10 - - 16.9 1022.0 0.0
14/03:30pm SW 7 12 - - - - 10 - - 18.5 1022.0 0.0
14/03:00pm SW 9 12 - - - - 10 - - 18.4 1022.0 0.0
14/02:30pm WSW 10 15 - - - - 10 - - 17.7 1022.4 0.0
14/02:00pm SW 11 17 - - - - 10 - - 17.5 1022.6 0.0
14/01:30pm SW 10 16 - - - - 10 - - 17.3 1022.9 0.0
14/01:00pm WSW 11 17 - - - - 10 - - 17.4 1023.2 0.0
14/12:30pm WSW 11 18 - - - - 10 - - 16.3 1023.6 0.0
14/12:00pm W 11 17 - - - - 10 - - 16.8 1023.9 0.0
14/11:30am WSW 14 22 - - - - 10 - - 15.8 1024.5 0.0
14/11:00am WSW 13 18 - - - - 10 - - 15.4 1024.7 0.0
14/10:30am WSW 16 21 - - - - 10 - - 15.0 1024.9 0.0
14/10:00am WSW 12 17 - - - - 10 - - 14.5 1025.0 0.0
14/09:30am WSW 15 19 - - - - 10 Partly cloudy - 13.8 1025.3 0.0
14/09:00am W 15 21 - - - - 10 - - 13.4 1025.6 0.0
14/08:30am WSW 13 18 - - - - 10 - - 12.6 1025.6 0.0
14/08:00am W 14 20 - - - - 10 Partly cloudy - 12.0 1025.7 0.0
14/07:30am WSW 14 19 - - - - 10 - - 10.9 1025.4 0.0
14/07:00am W 9 12 - - - - 10 - - 9.5 1025.4 0.0
14/06:30am W 7 10 - - - - 10 - - 8.6 1025.1 0.0
14/06:00am WSW 8 13 - - - - 10 Mostly clear - 9.0 1025.0 0.0
14/05:30am W 7 11 - - - - 10 Partly cloudy - 9.6 1024.7 0.0
14/05:00am WSW 11 16 - - - - 10 - - 9.8 1024.2 0.0
14/04:30am WSW 12 17 - - - - 10 Partly cloudy - 10.3 1024.0 0.0
14/04:00am WSW 10 14 - - - - 10 Partly cloudy - 10.6 1023.7 0.0
14/03:30am WSW 11 16 - - - - 10 Partly cloudy - 10.5 1023.4 0.0
14/03:00am W 12 18 - - - - 10 - - 10.3 1022.9 0.0
14/02:30am WSW 11 19 - - - - 10 - - 10.2 1022.8 0.0
14/02:00am WSW 13 20 - - - - 10 - - 10.7 1022.7 0.0
14/01:30am WSW 14 20 - - - - 10 - - 11.0 1022.7 0.0
14/01:00am WSW 18 26 - - - - 10 - - 11.6 1022.5 0.0
14/12:31am WSW 17 27 - - - - 10 - - 11.6 1022.1 0.0
14/12:30am WSW 17 26 - - - - 10 - - 11.6 1022.1 0.0
14/12:00am WSW 16 23 - - - - 10 - - 11.6 1022.2 0.0
 
Date/Time
EST
Wind Sea
Height
m
Swell Vis
km
Cloud Weather Temp
°C
Press
hPa
Rain since
9am
mm
Dir  Spd
kts
Gust
kts
Height
m
Period
s
Dir
13/11:30pm SW 19 24 - - - - 10 - - 12.3 1021.8 0.0
13/11:15pm SW 18 29 - - - - 10 - - 12.6 1021.4 0.0
13/11:00pm SW 17 24 - - - - 10 - - 12.6 1021.3 0.0
13/10:30pm SW 17 25 - - - - 10 - - 13.4 1021.2 0.0
13/10:00pm WSW 21 33 - - - - 10 Partly cloudy - 14.6 1021.1 0.0
13/09:53pm WSW 19 29 - - - - 10 Partly cloudy - 14.4 1021.0 0.0
13/09:47pm WSW 18 27 - - - - 10 Partly cloudy - 14.3 1020.9 0.0
13/09:30pm WSW 12 16 - - - - 10 Partly cloudy - 13.8 1021.0 0.0
13/09:00pm WSW 10 13 - - - - 10 Mostly cloudy - 14.0 1020.8 0.0
13/08:30pm W 7 10 - - - - 10 Cloudy - 13.7 1020.7 0.0
13/08:00pm W 7 9 - - - - 10 Cloudy - 14.0 1020.7 0.0
13/07:30pm W 4 5 - - - - 10 Cloudy - 13.3 1020.5 0.0
13/07:00pm NW 4 5 - - - - 10 Cloudy - 13.3 1020.1 0.0
13/06:30pm WNW 4 6 - - - - 10 Partly cloudy - 13.6 1019.9 0.0
13/06:00pm WSW 6 9 - - - - 10 Mostly cloudy - 12.9 1019.7 0.0
13/05:30pm W 7 10 - - - - 10 Partly cloudy - 14.9 1019.6 0.0
13/05:00pm WSW 7 9 - - - - 10 Partly cloudy - 15.1 1019.7 0.0
13/04:30pm SW 5 8 - - - - 10 Partly cloudy - 15.7 1019.6 0.0
13/04:00pm W 6 8 - - - - 10 - - 15.9 1019.5 0.0
13/03:30pm NW 7 11 - - - - 10 - - 15.6 1019.3 0.0
13/03:00pm SW 7 11 - - - - 10 Mostly clear - 16.6 1020.3 0.0
13/02:30pm SW 10 13 - - - - 10 - - 17.3 1020.8 0.0
13/02:00pm SW 8 12 - - - - 10 - - 16.3 1020.5 0.0
13/01:30pm SSW 10 13 - - - - 10 - - 16.5 1020.6 0.0
13/01:00pm SSE 5 9 - - - - 10 - - 16.3 1020.6 0.0
13/12:30pm S 4 9 - - - - 10 - - 16.4 1021.0 0.0
13/12:00pm E 5 8 - - - - 10 - - 15.3 1021.0 0.0
13/11:30am W 4 5 - - - - 10 - - 14.6 1022.0 0.0
13/11:00am S 4 7 - - - - 10 - - 13.6 1022.5 0.0
13/10:30am SE 5 8 - - - - 10 - - 13.0 1022.8 0.0
13/10:00am SSE 6 9 - - - - 10 - - 12.6 1023.2 0.0
13/09:30am SSW 5 7 - - - - 10 - - 12.0 1023.6 0.0
13/09:00am WSW 6 9 - - - - 10 - - 11.7 1024.0 0.0
13/08:30am W 6 9 - - - - 10 - - 10.9 1024.2 0.0
13/08:00am NW 4 6 - - - - 10 - - 9.8 1024.2 0.0
13/07:30am NW 5 5 - - - - 10 - - 8.6 1024.1 0.0
13/07:00am NNW 6 7 - - - - 10 - - 5.8 1024.1 0.0
13/06:30am NNW 5 6 - - - - 10 Partly cloudy - 4.2 1024.1 0.0
13/06:00am NW 5 6 - - - - 10 Mostly clear - 3.8 1024.1 0.0
13/05:30am WNW 5 7 - - - - 10 Partly cloudy - 6.3 1024.0 0.0
13/05:00am WSW 6 7 - - - - 10 Partly cloudy - 5.6 1024.0 0.0
13/04:30am WSW 6 7 - - - - 10 Partly cloudy - 4.8 1023.9 0.0
13/04:00am WNW 3 4 - - - - 10 Partly cloudy - 4.3 1023.4 0.0
13/03:30am NW 4 5 - - - - 10 - - 5.1 1023.3 0.0
13/03:00am WNW 5 7 - - - - 10 - - 6.1 1023.2 0.0
13/02:30am NW 5 6 - - - - 10 - - 6.1 1023.2 0.0
13/02:00am W 6 9 - - - - 10 - - 7.5 1023.3 0.0
13/01:30am WSW 7 11 - - - - 10 - - 8.3 1023.4 0.0
13/01:00am W 7 10 - - - - 10 - - 8.6 1023.4 0.0
13/12:30am WSW 10 15 - - - - 10 - - 9.0 1023.2 0.0
13/12:00am WSW 8 12 - - - - 10 - - 9.5 1023.3 0.0
 
Date/Time
EST
Wind Sea
Height
m
Swell Vis
km
Cloud Weather Temp
°C
Press
hPa
Rain since
9am
mm
Dir  Spd
kts
Gust
kts
Height
m
Period
s
Dir
12/11:30pm WSW 10 13 - - - - 10 - - 9.6 1022.8 0.0
12/11:00pm WSW 9 11 - - - - 10 - - 9.6 1022.6 0.0
12/10:30pm WSW 11 15 - - - - 10 - - 10.3 1022.3 0.0
12/10:00pm WSW 14 21 - - - - 10 - - 10.7 1022.1 0.0
12/09:30pm SW 11 15 - - - - 10 - - 11.1 1021.8 0.0
12/09:00pm WSW 11 16 - - - - 10 - - 11.5 1021.3 0.0
12/08:30pm WSW 13 18 - - - - 10 - - 12.0 1021.1 0.0
12/08:00pm WSW 12 17 - - - - 10 - - 12.6 1020.8 0.0
12/07:30pm WSW 14 20 - - - - 10 - - 13.5 1020.0 0.0
12/07:27pm WSW 16 26 - - - - 10 - - 13.6 1020.0 0.0
12/07:00pm WSW 15 23 - - - - 10 - - 13.6 1020.0 0.0
12/06:30pm WSW 15 23 - - - - 10 - - 14.2 1019.2 0.0
12/06:18pm WSW 19 29 - - - - 10 - - 14.4 1018.8 0.0
12/06:00pm WSW 20 28 - - - - 10 - - 14.8 1018.5 0.0
12/05:43pm WSW 21 31 - - - - 10 - - 15.2 1018.1 0.0
12/05:30pm WSW 19 28 - - - - 10 - - 15.6 1018.0 0.0
12/05:06pm WSW 20 30 - - - - 10 - - 16.5 1017.6 0.0
12/05:00pm WSW 23 31 - - - - 10 - - 16.7 1017.4 0.0
12/04:50pm WSW 24 37 - - - - 10 - - 17.0 1017.1 0.0
12/04:30pm WSW 24 35 - - - - 4 Partly cloudy - 17.9 1016.6 0.0
12/04:28pm SW 25 35 - - - - 5 Partly cloudy - 17.9 1016.5 0.0
12/04:14pm WSW 23 36 - - - - 10 Partly cloudy - 18.6 1016.2 0.0

Other formats

Comma delimited format used in spreadsheet applications
http://www.bom.gov.au/fwo/IDV60701/IDV60701.94912.axf

JavaScript Object Notation format (JSON) in row-major order
http://www.bom.gov.au/fwo/IDV60701/IDV60701.94912.json

Data quality

Most of these data are generated automatically and are frequently updated. Quality checks on data are not normally performed. It is possible for incorrect values to appear. Refer to information at About Latest Weather Observations and please check the disclaimer before using these data.